sensor_id;sensor_type;location;lat;lon;timestamp;P1;durP1;ratioP1;P2;durP2;ratioP2
1777;SDS011;71547;50.146;8.174;2023-07-29T00:02:18;2.97;;;2.77;;
1777;SDS011;71547;50.146;8.174;2023-07-29T00:04:47;3.13;;;2.83;;
1777;SDS011;71547;50.146;8.174;2023-07-29T00:07:15;2.30;;;2.20;;
1777;SDS011;71547;50.146;8.174;2023-07-29T00:09:44;2.83;;;2.73;;
1777;SDS011;71547;50.146;8.174;2023-07-29T00:12:11;3.60;;;3.40;;
1777;SDS011;71547;50.146;8.174;2023-07-29T00:14:39;4.33;;;4.03;;
1777;SDS011;71547;50.146;8.174;2023-07-29T00:17:06;4.47;;;4.07;;
1777;SDS011;71547;50.146;8.174;2023-07-29T00:19:34;4.87;;;4.57;;
1777;SDS011;71547;50.146;8.174;2023-07-29T00:22:01;5.10;;;4.80;;
1777;SDS011;71547;50.146;8.174;2023-07-29T00:24:29;5.03;;;4.73;;
1777;SDS011;71547;50.146;8.174;2023-07-29T00:26:57;5.00;;;4.60;;
1777;SDS011;71547;50.146;8.174;2023-07-29T00:29:28;5.13;;;4.73;;
1777;SDS011;71547;50.146;8.174;2023-07-29T00:31:55;4.33;;;4.00;;
1777;SDS011;71547;50.146;8.174;2023-07-29T00:34:22;4.47;;;4.20;;
1777;SDS011;71547;50.146;8.174;2023-07-29T00:36:50;4.73;;;4.50;;
1777;SDS011;71547;50.146;8.174;2023-07-29T00:39:17;4.50;;;4.30;;
1777;SDS011;71547;50.146;8.174;2023-07-29T00:41:47;4.13;;;3.93;;
1777;SDS011;71547;50.146;8.174;2023-07-29T00:44:17;4.40;;;4.10;;
1777;SDS011;71547;50.146;8.174;2023-07-29T00:46:45;5.07;;;4.77;;
1777;SDS011;71547;50.146;8.174;2023-07-29T00:49:14;4.80;;;4.40;;
1777;SDS011;71547;50.146;8.174;2023-07-29T00:51:42;4.80;;;4.50;;
1777;SDS011;71547;50.146;8.174;2023-07-29T00:54:09;5.17;;;4.83;;
1777;SDS011;71547;50.146;8.174;2023-07-29T00:56:36;5.40;;;4.80;;
1777;SDS011;71547;50.146;8.174;2023-07-29T00:59:04;5.17;;;4.87;;
1777;SDS011;71547;50.146;8.174;2023-07-29T01:01:33;5.70;;;5.20;;
1777;SDS011;71547;50.146;8.174;2023-07-29T01:04:02;7.03;;;5.97;;
1777;SDS011;71547;50.146;8.174;2023-07-29T01:06:33;6.07;;;5.60;;
1777;SDS011;71547;50.146;8.174;2023-07-29T01:09:08;5.87;;;5.47;;
1777;SDS011;71547;50.146;8.174;2023-07-29T01:11:54;5.73;;;5.33;;
1777;SDS011;71547;50.146;8.174;2023-07-29T01:14:34;6.57;;;6.17;;
1777;SDS011;71547;50.146;8.174;2023-07-29T01:17:09;6.67;;;6.17;;
1777;SDS011;71547;50.146;8.174;2023-07-29T01:19:48;6.70;;;6.20;;
1777;SDS011;71547;50.146;8.174;2023-07-29T01:22:33;6.77;;;6.27;;
1777;SDS011;71547;50.146;8.174;2023-07-29T01:25:05;5.70;;;5.30;;
1777;SDS011;71547;50.146;8.174;2023-07-29T01:27:52;6.07;;;5.67;;
1777;SDS011;71547;50.146;8.174;2023-07-29T01:30:22;5.80;;;5.40;;
1777;SDS011;71547;50.146;8.174;2023-07-29T01:32:59;6.23;;;5.30;;
1777;SDS011;71547;50.146;8.174;2023-07-29T01:35:34;6.20;;;5.80;;
1777;SDS011;71547;50.146;8.174;2023-07-29T01:38:14;7.50;;;6.77;;
1777;SDS011;71547;50.146;8.174;2023-07-29T01:40:50;6.40;;;6.00;;
1777;SDS011;71547;50.146;8.174;2023-07-29T01:43:19;7.07;;;6.33;;
1777;SDS011;71547;50.146;8.174;2023-07-29T01:45:53;7.57;;;6.97;;
1777;SDS011;71547;50.146;8.174;2023-07-29T01:48:21;7.23;;;6.73;;
1777;SDS011;71547;50.146;8.174;2023-07-29T01:50:49;8.27;;;7.30;;
1777;SDS011;71547;50.146;8.174;2023-07-29T01:53:17;7.70;;;6.97;;
1777;SDS011;71547;50.146;8.174;2023-07-29T01:55:44;8.37;;;6.27;;
1777;SDS011;71547;50.146;8.174;2023-07-29T01:58:13;7.17;;;6.67;;
1777;SDS011;71547;50.146;8.174;2023-07-29T02:00:41;7.57;;;6.97;;
1777;SDS011;71547;50.146;8.174;2023-07-29T02:03:09;6.80;;;6.30;;
1777;SDS011;71547;50.146;8.174;2023-07-29T02:05:36;7.10;;;6.57;;
1777;SDS011;71547;50.146;8.174;2023-07-29T02:08:04;6.37;;;5.87;;
1777;SDS011;71547;50.146;8.174;2023-07-29T02:10:32;8.23;;;7.57;;
1777;SDS011;71547;50.146;8.174;2023-07-29T02:13:00;7.20;;;6.60;;
1777;SDS011;71547;50.146;8.174;2023-07-29T02:15:31;7.33;;;6.50;;
1777;SDS011;71547;50.146;8.174;2023-07-29T02:17:59;7.00;;;6.50;;
1777;SDS011;71547;50.146;8.174;2023-07-29T02:20:28;6.40;;;5.80;;
1777;SDS011;71547;50.146;8.174;2023-07-29T02:22:56;5.73;;;5.33;;
1777;SDS011;71547;50.146;8.174;2023-07-29T02:25:24;6.03;;;5.43;;
1777;SDS011;71547;50.146;8.174;2023-07-29T02:27:52;5.50;;;5.20;;
1777;SDS011;71547;50.146;8.174;2023-07-29T02:30:20;5.73;;;5.23;;
1777;SDS011;71547;50.146;8.174;2023-07-29T02:32:50;6.63;;;5.60;;
1777;SDS011;71547;50.146;8.174;2023-07-29T02:35:17;6.53;;;6.00;;
1777;SDS011;71547;50.146;8.174;2023-07-29T02:37:45;7.27;;;6.57;;
1777;SDS011;71547;50.146;8.174;2023-07-29T02:40:12;5.77;;;5.27;;
1777;SDS011;71547;50.146;8.174;2023-07-29T02:42:40;5.80;;;5.40;;
1777;SDS011;71547;50.146;8.174;2023-07-29T02:45:08;5.80;;;5.40;;
1777;SDS011;71547;50.146;8.174;2023-07-29T02:47:37;5.40;;;5.00;;
1777;SDS011;71547;50.146;8.174;2023-07-29T02:50:07;6.73;;;6.23;;
1777;SDS011;71547;50.146;8.174;2023-07-29T02:52:36;6.07;;;5.67;;
1777;SDS011;71547;50.146;8.174;2023-07-29T02:55:03;7.07;;;6.47;;
1777;SDS011;71547;50.146;8.174;2023-07-29T02:57:32;7.93;;;5.30;;
1777;SDS011;71547;50.146;8.174;2023-07-29T03:00:02;6.00;;;5.20;;
1777;SDS011;71547;50.146;8.174;2023-07-29T03:02:34;6.40;;;5.80;;
1777;SDS011;71547;50.146;8.174;2023-07-29T03:05:03;7.03;;;6.43;;
1777;SDS011;71547;50.146;8.174;2023-07-29T03:07:33;6.97;;;6.37;;
1777;SDS011;71547;50.146;8.174;2023-07-29T03:10:00;7.67;;;6.87;;
1777;SDS011;71547;50.146;8.174;2023-07-29T03:12:28;6.30;;;5.80;;
1777;SDS011;71547;50.146;8.174;2023-07-29T03:14:56;6.97;;;6.37;;
1777;SDS011;71547;50.146;8.174;2023-07-29T03:17:24;6.00;;;5.50;;
1777;SDS011;71547;50.146;8.174;2023-07-29T03:19:52;6.53;;;5.47;;
1777;SDS011;71547;50.146;8.174;2023-07-29T03:22:20;6.30;;;5.80;;
1777;SDS011;71547;50.146;8.174;2023-07-29T03:24:49;5.43;;;5.03;;
1777;SDS011;71547;50.146;8.174;2023-07-29T03:27:17;5.83;;;5.33;;
1777;SDS011;71547;50.146;8.174;2023-07-29T03:29:45;5.70;;;5.30;;
1777;SDS011;71547;50.146;8.174;2023-07-29T03:32:13;6.03;;;5.43;;
1777;SDS011;71547;50.146;8.174;2023-07-29T03:34:41;5.80;;;5.30;;
1777;SDS011;71547;50.146;8.174;2023-07-29T03:37:09;5.33;;;5.03;;
1777;SDS011;71547;50.146;8.174;2023-07-29T03:39:55;6.83;;;6.33;;
1777;SDS011;71547;50.146;8.174;2023-07-29T03:42:23;6.20;;;5.70;;
1777;SDS011;71547;50.146;8.174;2023-07-29T03:44:51;6.20;;;5.80;;
1777;SDS011;71547;50.146;8.174;2023-07-29T03:47:19;6.90;;;6.30;;
1777;SDS011;71547;50.146;8.174;2023-07-29T03:49:47;7.00;;;6.40;;
1777;SDS011;71547;50.146;8.174;2023-07-29T03:52:15;7.00;;;6.47;;
1777;SDS011;71547;50.146;8.174;2023-07-29T03:54:43;6.53;;;6.03;;
1777;SDS011;71547;50.146;8.174;2023-07-29T03:57:11;6.17;;;5.57;;
1777;SDS011;71547;50.146;8.174;2023-07-29T03:59:39;5.40;;;5.10;;
1777;SDS011;71547;50.146;8.174;2023-07-29T04:02:06;5.60;;;5.20;;
1777;SDS011;71547;50.146;8.174;2023-07-29T04:04:35;4.90;;;4.50;;
1777;SDS011;71547;50.146;8.174;2023-07-29T04:07:02;4.50;;;4.20;;
1777;SDS011;71547;50.146;8.174;2023-07-29T04:09:31;4.33;;;4.13;;
1777;SDS011;71547;50.146;8.174;2023-07-29T04:11:59;4.53;;;4.27;;
1777;SDS011;71547;50.146;8.174;2023-07-29T04:14:29;4.13;;;3.83;;
1777;SDS011;71547;50.146;8.174;2023-07-29T04:16:57;4.60;;;4.20;;
1777;SDS011;71547;50.146;8.174;2023-07-29T04:19:25;4.30;;;4.00;;
1777;SDS011;71547;50.146;8.174;2023-07-29T04:21:53;6.43;;;4.20;;
1777;SDS011;71547;50.146;8.174;2023-07-29T04:24:21;4.10;;;3.90;;
1777;SDS011;71547;50.146;8.174;2023-07-29T04:26:49;5.90;;;4.03;;
1777;SDS011;71547;50.146;8.174;2023-07-29T04:29:18;4.40;;;4.20;;
1777;SDS011;71547;50.146;8.174;2023-07-29T04:31:47;5.60;;;4.83;;
1777;SDS011;71547;50.146;8.174;2023-07-29T04:34:15;5.33;;;4.97;;
1777;SDS011;71547;50.146;8.174;2023-07-29T04:36:43;5.33;;;4.93;;
1777;SDS011;71547;50.146;8.174;2023-07-29T04:39:14;5.93;;;5.33;;
1777;SDS011;71547;50.146;8.174;2023-07-29T04:41:42;4.83;;;4.53;;
1777;SDS011;71547;50.146;8.174;2023-07-29T04:44:10;4.73;;;3.70;;
1777;SDS011;71547;50.146;8.174;2023-07-29T04:46:37;4.90;;;4.60;;
1777;SDS011;71547;50.146;8.174;2023-07-29T04:49:06;4.93;;;4.57;;
1777;SDS011;71547;50.146;8.174;2023-07-29T04:51:34;4.50;;;4.20;;
1777;SDS011;71547;50.146;8.174;2023-07-29T04:54:03;5.10;;;4.80;;
1777;SDS011;71547;50.146;8.174;2023-07-29T04:56:31;5.10;;;4.80;;
1777;SDS011;71547;50.146;8.174;2023-07-29T04:58:59;5.23;;;4.83;;
1777;SDS011;71547;50.146;8.174;2023-07-29T05:01:27;5.93;;;5.43;;
1777;SDS011;71547;50.146;8.174;2023-07-29T05:03:55;5.07;;;4.77;;
1777;SDS011;71547;50.146;8.174;2023-07-29T05:06:26;6.50;;;6.00;;
1777;SDS011;71547;50.146;8.174;2023-07-29T05:08:56;7.13;;;4.93;;
1777;SDS011;71547;50.146;8.174;2023-07-29T05:11:24;5.27;;;4.87;;
1777;SDS011;71547;50.146;8.174;2023-07-29T05:13:52;4.43;;;4.17;;
1777;SDS011;71547;50.146;8.174;2023-07-29T05:16:20;5.33;;;4.93;;
1777;SDS011;71547;50.146;8.174;2023-07-29T05:18:48;4.30;;;4.00;;
1777;SDS011;71547;50.146;8.174;2023-07-29T05:21:16;4.30;;;4.00;;
1777;SDS011;71547;50.146;8.174;2023-07-29T05:24:02;4.50;;;4.30;;
1777;SDS011;71547;50.146;8.174;2023-07-29T05:26:34;4.80;;;4.40;;
1777;SDS011;71547;50.146;8.174;2023-07-29T05:29:02;3.90;;;3.70;;
1777;SDS011;71547;50.146;8.174;2023-07-29T05:31:30;3.50;;;3.30;;
1777;SDS011;71547;50.146;8.174;2023-07-29T05:33:59;3.83;;;3.47;;
1777;SDS011;71547;50.146;8.174;2023-07-29T05:36:27;3.90;;;3.70;;
1777;SDS011;71547;50.146;8.174;2023-07-29T05:38:56;3.70;;;3.50;;
1777;SDS011;71547;50.146;8.174;2023-07-29T05:41:25;3.33;;;3.13;;
1777;SDS011;71547;50.146;8.174;2023-07-29T05:43:55;3.63;;;3.43;;
1777;SDS011;71547;50.146;8.174;2023-07-29T05:46:25;3.73;;;3.53;;
1777;SDS011;71547;50.146;8.174;2023-07-29T05:48:53;4.00;;;3.80;;
1777;SDS011;71547;50.146;8.174;2023-07-29T05:51:21;3.67;;;3.47;;
1777;SDS011;71547;50.146;8.174;2023-07-29T05:53:49;3.20;;;3.10;;
1777;SDS011;71547;50.146;8.174;2023-07-29T05:56:16;3.50;;;3.20;;
1777;SDS011;71547;50.146;8.174;2023-07-29T05:58:45;3.07;;;2.97;;
1777;SDS011;71547;50.146;8.174;2023-07-29T06:01:12;3.47;;;3.27;;
1777;SDS011;71547;50.146;8.174;2023-07-29T06:03:40;3.40;;;3.20;;
1777;SDS011;71547;50.146;8.174;2023-07-29T06:06:07;3.00;;;2.80;;
1777;SDS011;71547;50.146;8.174;2023-07-29T06:08:35;3.03;;;2.83;;
1777;SDS011;71547;50.146;8.174;2023-07-29T06:11:03;3.93;;;3.73;;
1777;SDS011;71547;50.146;8.174;2023-07-29T06:13:32;3.70;;;3.40;;
1777;SDS011;71547;50.146;8.174;2023-07-29T06:16:02;3.73;;;3.43;;
1777;SDS011;71547;50.146;8.174;2023-07-29T06:18:33;3.80;;;3.60;;
1777;SDS011;71547;50.146;8.174;2023-07-29T06:21:01;3.50;;;3.30;;
1777;SDS011;71547;50.146;8.174;2023-07-29T06:23:34;4.10;;;3.90;;
1777;SDS011;71547;50.146;8.174;2023-07-29T06:26:02;3.97;;;3.77;;
1777;SDS011;71547;50.146;8.174;2023-07-29T06:28:30;3.90;;;3.43;;
1777;SDS011;71547;50.146;8.174;2023-07-29T06:30:58;4.30;;;3.97;;
1777;SDS011;71547;50.146;8.174;2023-07-29T06:33:27;3.70;;;3.50;;
1777;SDS011;71547;50.146;8.174;2023-07-29T06:35:56;5.63;;;4.90;;
1777;SDS011;71547;50.146;8.174;2023-07-29T06:38:24;4.70;;;4.40;;
1777;SDS011;71547;50.146;8.174;2023-07-29T06:40:51;5.10;;;4.80;;
1777;SDS011;71547;50.146;8.174;2023-07-29T06:43:19;6.40;;;5.03;;
1777;SDS011;71547;50.146;8.174;2023-07-29T06:45:47;5.47;;;5.00;;
1777;SDS011;71547;50.146;8.174;2023-07-29T06:48:18;6.10;;;5.60;;
1777;SDS011;71547;50.146;8.174;2023-07-29T06:50:48;5.50;;;5.20;;
1777;SDS011;71547;50.146;8.174;2023-07-29T06:53:21;5.40;;;5.10;;
1777;SDS011;71547;50.146;8.174;2023-07-29T06:55:49;5.83;;;5.40;;
1777;SDS011;71547;50.146;8.174;2023-07-29T06:58:17;5.03;;;4.80;;
1777;SDS011;71547;50.146;8.174;2023-07-29T07:00:45;5.17;;;4.77;;
1777;SDS011;71547;50.146;8.174;2023-07-29T07:03:13;4.20;;;4.00;;
1777;SDS011;71547;50.146;8.174;2023-07-29T07:05:41;5.43;;;4.00;;
1777;SDS011;71547;50.146;8.174;2023-07-29T07:08:09;3.63;;;3.47;;
1777;SDS011;71547;50.146;8.174;2023-07-29T07:10:37;4.13;;;3.93;;
1777;SDS011;71547;50.146;8.174;2023-07-29T07:13:04;3.50;;;3.20;;
1777;SDS011;71547;50.146;8.174;2023-07-29T07:15:32;3.77;;;3.57;;
1777;SDS011;71547;50.146;8.174;2023-07-29T07:18:00;3.37;;;3.17;;
1777;SDS011;71547;50.146;8.174;2023-07-29T07:20:28;3.47;;;3.27;;
1777;SDS011;71547;50.146;8.174;2023-07-29T07:22:56;3.10;;;3.00;;
1777;SDS011;71547;50.146;8.174;2023-07-29T07:25:26;3.30;;;3.10;;
1777;SDS011;71547;50.146;8.174;2023-07-29T07:27:54;3.40;;;3.10;;
1777;SDS011;71547;50.146;8.174;2023-07-29T07:30:22;3.10;;;3.00;;
1777;SDS011;71547;50.146;8.174;2023-07-29T07:32:49;3.13;;;2.83;;
1777;SDS011;71547;50.146;8.174;2023-07-29T07:35:17;2.93;;;2.73;;
1777;SDS011;71547;50.146;8.174;2023-07-29T07:37:45;3.27;;;2.97;;
1777;SDS011;71547;50.146;8.174;2023-07-29T07:40:12;2.37;;;2.23;;
1777;SDS011;71547;50.146;8.174;2023-07-29T07:42:41;2.83;;;2.70;;
1777;SDS011;71547;50.146;8.174;2023-07-29T07:45:09;2.50;;;2.40;;
1777;SDS011;71547;50.146;8.174;2023-07-29T07:47:37;2.47;;;2.37;;
1777;SDS011;71547;50.146;8.174;2023-07-29T07:50:04;2.50;;;2.37;;
1777;SDS011;71547;50.146;8.174;2023-07-29T07:52:32;2.50;;;2.40;;
1777;SDS011;71547;50.146;8.174;2023-07-29T07:55:01;2.60;;;2.10;;
1777;SDS011;71547;50.146;8.174;2023-07-29T07:57:29;2.40;;;2.30;;
1777;SDS011;71547;50.146;8.174;2023-07-29T07:59:58;2.33;;;2.23;;
1777;SDS011;71547;50.146;8.174;2023-07-29T08:02:26;1.93;;;1.83;;
1777;SDS011;71547;50.146;8.174;2023-07-29T08:04:54;1.87;;;1.77;;
1777;SDS011;71547;50.146;8.174;2023-07-29T08:07:21;1.60;;;1.50;;
1777;SDS011;71547;50.146;8.174;2023-07-29T08:09:49;2.20;;;2.10;;
1777;SDS011;71547;50.146;8.174;2023-07-29T08:12:17;2.60;;;2.27;;
1777;SDS011;71547;50.146;8.174;2023-07-29T08:14:45;2.47;;;2.37;;
1777;SDS011;71547;50.146;8.174;2023-07-29T08:17:14;2.60;;;2.50;;
1777;SDS011;71547;50.146;8.174;2023-07-29T08:19:41;2.90;;;2.77;;
1777;SDS011;71547;50.146;8.174;2023-07-29T08:22:09;2.43;;;2.23;;
1777;SDS011;71547;50.146;8.174;2023-07-29T08:24:39;2.13;;;2.03;;
1777;SDS011;71547;50.146;8.174;2023-07-29T08:27:06;2.27;;;2.17;;
1777;SDS011;71547;50.146;8.174;2023-07-29T08:29:34;2.50;;;2.40;;
1777;SDS011;71547;50.146;8.174;2023-07-29T08:32:02;2.50;;;2.40;;
1777;SDS011;71547;50.146;8.174;2023-07-29T08:34:31;3.60;;;2.23;;
1777;SDS011;71547;50.146;8.174;2023-07-29T08:37:01;2.30;;;2.20;;
1777;SDS011;71547;50.146;8.174;2023-07-29T08:39:29;2.60;;;2.40;;
1777;SDS011;71547;50.146;8.174;2023-07-29T08:41:57;2.23;;;2.13;;
1777;SDS011;71547;50.146;8.174;2023-07-29T08:44:34;2.27;;;2.17;;
1777;SDS011;71547;50.146;8.174;2023-07-29T08:47:07;2.87;;;2.67;;
1777;SDS011;71547;50.146;8.174;2023-07-29T08:49:36;2.73;;;2.50;;
1777;SDS011;71547;50.146;8.174;2023-07-29T08:52:05;2.40;;;2.30;;
1777;SDS011;71547;50.146;8.174;2023-07-29T08:54:33;2.70;;;2.60;;
1777;SDS011;71547;50.146;8.174;2023-07-29T08:57:01;2.30;;;2.20;;
1777;SDS011;71547;50.146;8.174;2023-07-29T08:59:33;2.53;;;2.43;;
1777;SDS011;71547;50.146;8.174;2023-07-29T09:02:01;2.30;;;2.20;;
1777;SDS011;71547;50.146;8.174;2023-07-29T09:04:29;3.00;;;2.27;;
1777;SDS011;71547;50.146;8.174;2023-07-29T09:06:58;3.53;;;2.60;;
1777;SDS011;71547;50.146;8.174;2023-07-29T09:09:27;2.50;;;2.40;;
1777;SDS011;71547;50.146;8.174;2023-07-29T09:11:55;2.67;;;2.57;;
1777;SDS011;71547;50.146;8.174;2023-07-29T09:14:24;2.53;;;2.33;;
1777;SDS011;71547;50.146;8.174;2023-07-29T09:16:52;2.80;;;2.60;;
1777;SDS011;71547;50.146;8.174;2023-07-29T09:19:24;2.40;;;2.30;;
1777;SDS011;71547;50.146;8.174;2023-07-29T09:21:54;4.17;;;2.50;;
1777;SDS011;71547;50.146;8.174;2023-07-29T09:24:26;4.63;;;2.63;;
1777;SDS011;71547;50.146;8.174;2023-07-29T09:27:23;2.30;;;2.20;;
1777;SDS011;71547;50.146;8.174;2023-07-29T09:29:52;2.60;;;2.50;;
1777;SDS011;71547;50.146;8.174;2023-07-29T09:32:21;2.80;;;2.10;;
1777;SDS011;71547;50.146;8.174;2023-07-29T09:34:50;2.30;;;2.20;;
1777;SDS011;71547;50.146;8.174;2023-07-29T09:37:20;1.73;;;1.63;;
1777;SDS011;71547;50.146;8.174;2023-07-29T09:39:50;1.73;;;1.63;;
1777;SDS011;71547;50.146;8.174;2023-07-29T09:42:19;2.40;;;2.20;;
1777;SDS011;71547;50.146;8.174;2023-07-29T09:44:51;2.80;;;2.23;;
1777;SDS011;71547;50.146;8.174;2023-07-29T09:47:20;3.50;;;3.00;;
1777;SDS011;71547;50.146;8.174;2023-07-29T09:49:50;2.60;;;2.50;;
1777;SDS011;71547;50.146;8.174;2023-07-29T09:52:19;2.57;;;2.47;;
1777;SDS011;71547;50.146;8.174;2023-07-29T09:54:50;3.63;;;2.37;;
1777;SDS011;71547;50.146;8.174;2023-07-29T09:57:18;3.73;;;2.30;;
1777;SDS011;71547;50.146;8.174;2023-07-29T09:59:53;2.47;;;2.27;;
1777;SDS011;71547;50.146;8.174;2023-07-29T10:02:21;2.27;;;2.07;;
1777;SDS011;71547;50.146;8.174;2023-07-29T10:04:52;4.57;;;2.80;;
1777;SDS011;71547;50.146;8.174;2023-07-29T10:07:44;2.50;;;2.40;;
1777;SDS011;71547;50.146;8.174;2023-07-29T10:10:14;5.07;;;2.17;;
1777;SDS011;71547;50.146;8.174;2023-07-29T10:12:43;2.27;;;2.17;;
1777;SDS011;71547;50.146;8.174;2023-07-29T10:15:11;2.03;;;1.93;;
1777;SDS011;71547;50.146;8.174;2023-07-29T10:17:39;2.80;;;2.60;;
1777;SDS011;71547;50.146;8.174;2023-07-29T10:20:07;2.27;;;2.17;;
1777;SDS011;71547;50.146;8.174;2023-07-29T10:22:40;2.07;;;1.97;;
1777;SDS011;71547;50.146;8.174;2023-07-29T10:25:09;1.97;;;1.87;;
1777;SDS011;71547;50.146;8.174;2023-07-29T10:27:46;2.00;;;1.90;;
1777;SDS011;71547;50.146;8.174;2023-07-29T10:30:19;1.90;;;1.80;;
1777;SDS011;71547;50.146;8.174;2023-07-29T10:32:47;1.80;;;1.70;;
1777;SDS011;71547;50.146;8.174;2023-07-29T10:35:16;2.20;;;2.10;;
1777;SDS011;71547;50.146;8.174;2023-07-29T10:37:44;7.60;;;2.30;;
1777;SDS011;71547;50.146;8.174;2023-07-29T10:40:13;2.20;;;2.10;;
1777;SDS011;71547;50.146;8.174;2023-07-29T10:42:59;1.53;;;1.43;;
1777;SDS011;71547;50.146;8.174;2023-07-29T10:45:36;2.00;;;1.90;;
1777;SDS011;71547;50.146;8.174;2023-07-29T10:48:06;1.67;;;1.57;;
1777;SDS011;71547;50.146;8.174;2023-07-29T10:50:35;1.57;;;1.47;;
1777;SDS011;71547;50.146;8.174;2023-07-29T10:53:03;1.60;;;1.50;;
1777;SDS011;71547;50.146;8.174;2023-07-29T10:55:34;1.70;;;1.60;;
1777;SDS011;71547;50.146;8.174;2023-07-29T10:58:13;2.10;;;2.00;;
1777;SDS011;71547;50.146;8.174;2023-07-29T11:00:44;2.80;;;1.83;;
1777;SDS011;71547;50.146;8.174;2023-07-29T11:03:16;1.73;;;1.63;;
1777;SDS011;71547;50.146;8.174;2023-07-29T11:05:50;1.90;;;1.80;;
1777;SDS011;71547;50.146;8.174;2023-07-29T11:08:19;2.00;;;1.90;;
1777;SDS011;71547;50.146;8.174;2023-07-29T11:11:00;2.00;;;1.90;;
1777;SDS011;71547;50.146;8.174;2023-07-29T11:13:32;2.00;;;1.90;;
1777;SDS011;71547;50.146;8.174;2023-07-29T11:16:02;1.83;;;1.73;;
1777;SDS011;71547;50.146;8.174;2023-07-29T11:18:31;2.67;;;1.80;;
1777;SDS011;71547;50.146;8.174;2023-07-29T11:21:02;1.70;;;1.60;;
1777;SDS011;71547;50.146;8.174;2023-07-29T11:23:34;3.67;;;1.90;;
1777;SDS011;71547;50.146;8.174;2023-07-29T11:26:04;2.50;;;1.43;;
1777;SDS011;71547;50.146;8.174;2023-07-29T11:28:38;1.63;;;1.53;;
1777;SDS011;71547;50.146;8.174;2023-07-29T11:31:07;1.70;;;1.60;;
1777;SDS011;71547;50.146;8.174;2023-07-29T11:33:38;1.70;;;1.60;;
1777;SDS011;71547;50.146;8.174;2023-07-29T11:36:05;1.73;;;1.63;;
1777;SDS011;71547;50.146;8.174;2023-07-29T11:38:33;1.63;;;1.53;;
1777;SDS011;71547;50.146;8.174;2023-07-29T11:41:04;2.07;;;1.97;;
1777;SDS011;71547;50.146;8.174;2023-07-29T11:43:34;1.50;;;1.40;;
1777;SDS011;71547;50.146;8.174;2023-07-29T11:46:04;2.97;;;1.90;;
1777;SDS011;71547;50.146;8.174;2023-07-29T11:48:32;2.03;;;1.87;;
1777;SDS011;71547;50.146;8.174;2023-07-29T11:51:00;1.87;;;1.77;;
1777;SDS011;71547;50.146;8.174;2023-07-29T11:53:31;1.77;;;1.50;;
1777;SDS011;71547;50.146;8.174;2023-07-29T11:55:59;3.13;;;2.33;;
1777;SDS011;71547;50.146;8.174;2023-07-29T11:58:26;2.23;;;2.00;;
1777;SDS011;71547;50.146;8.174;2023-07-29T12:00:54;3.37;;;2.00;;
1777;SDS011;71547;50.146;8.174;2023-07-29T12:03:25;4.20;;;1.87;;
1777;SDS011;71547;50.146;8.174;2023-07-29T12:05:53;1.90;;;1.80;;
1777;SDS011;71547;50.146;8.174;2023-07-29T12:08:22;1.80;;;1.70;;
1777;SDS011;71547;50.146;8.174;2023-07-29T12:10:50;2.07;;;1.97;;
1777;SDS011;71547;50.146;8.174;2023-07-29T12:13:18;4.63;;;1.90;;
1777;SDS011;71547;50.146;8.174;2023-07-29T12:15:50;2.53;;;1.97;;
1777;SDS011;71547;50.146;8.174;2023-07-29T12:18:20;2.17;;;2.07;;
1777;SDS011;71547;50.146;8.174;2023-07-29T12:21:02;5.80;;;1.83;;
1777;SDS011;71547;50.146;8.174;2023-07-29T12:23:31;2.60;;;1.80;;
1777;SDS011;71547;50.146;8.174;2023-07-29T12:25:59;1.50;;;1.40;;
1777;SDS011;71547;50.146;8.174;2023-07-29T12:28:30;2.50;;;2.10;;
1777;SDS011;71547;50.146;8.174;2023-07-29T12:30:58;2.33;;;2.10;;
1777;SDS011;71547;50.146;8.174;2023-07-29T12:33:31;2.00;;;1.90;;
1777;SDS011;71547;50.146;8.174;2023-07-29T12:36:04;2.00;;;1.87;;
1777;SDS011;71547;50.146;8.174;2023-07-29T12:38:32;1.90;;;1.80;;
1777;SDS011;71547;50.146;8.174;2023-07-29T12:41:00;2.50;;;2.00;;
1777;SDS011;71547;50.146;8.174;2023-07-29T12:43:28;2.00;;;1.90;;
1777;SDS011;71547;50.146;8.174;2023-07-29T12:45:57;2.20;;;2.10;;
1777;SDS011;71547;50.146;8.174;2023-07-29T12:48:25;4.00;;;1.97;;
1777;SDS011;71547;50.146;8.174;2023-07-29T12:50:54;2.20;;;2.10;;
1777;SDS011;71547;50.146;8.174;2023-07-29T12:53:22;4.43;;;2.50;;
1777;SDS011;71547;50.146;8.174;2023-07-29T12:55:50;2.40;;;2.20;;
1777;SDS011;71547;50.146;8.174;2023-07-29T12:58:17;8.90;;;1.93;;
1777;SDS011;71547;50.146;8.174;2023-07-29T13:00:45;2.70;;;1.93;;
1777;SDS011;71547;50.146;8.174;2023-07-29T13:03:13;2.60;;;2.40;;
1777;SDS011;71547;50.146;8.174;2023-07-29T13:05:41;2.07;;;1.97;;
1777;SDS011;71547;50.146;8.174;2023-07-29T13:08:10;3.00;;;1.80;;
1777;SDS011;71547;50.146;8.174;2023-07-29T13:10:38;3.30;;;1.80;;
1777;SDS011;71547;50.146;8.174;2023-07-29T13:13:05;1.60;;;1.50;;
1777;SDS011;71547;50.146;8.174;2023-07-29T13:15:33;1.50;;;1.40;;
1777;SDS011;71547;50.146;8.174;2023-07-29T13:18:01;2.60;;;2.50;;
1777;SDS011;71547;50.146;8.174;2023-07-29T13:20:30;1.90;;;1.80;;
1777;SDS011;71547;50.146;8.174;2023-07-29T13:23:00;2.07;;;1.97;;
1777;SDS011;71547;50.146;8.174;2023-07-29T13:25:29;2.17;;;2.07;;
1777;SDS011;71547;50.146;8.174;2023-07-29T13:27:57;1.90;;;1.80;;
1777;SDS011;71547;50.146;8.174;2023-07-29T13:30:25;2.00;;;1.90;;
1777;SDS011;71547;50.146;8.174;2023-07-29T13:32:54;2.10;;;1.60;;
1777;SDS011;71547;50.146;8.174;2023-07-29T13:35:22;1.80;;;1.70;;
1777;SDS011;71547;50.146;8.174;2023-07-29T13:37:51;2.23;;;1.50;;
1777;SDS011;71547;50.146;8.174;2023-07-29T13:40:18;3.00;;;1.60;;
1777;SDS011;71547;50.146;8.174;2023-07-29T13:42:47;1.70;;;1.60;;
1777;SDS011;71547;50.146;8.174;2023-07-29T13:45:15;1.53;;;1.43;;
1777;SDS011;71547;50.146;8.174;2023-07-29T13:47:42;1.93;;;1.83;;
1777;SDS011;71547;50.146;8.174;2023-07-29T13:50:12;2.80;;;1.63;;
1777;SDS011;71547;50.146;8.174;2023-07-29T13:52:39;1.87;;;1.77;;
1777;SDS011;71547;50.146;8.174;2023-07-29T13:55:06;2.20;;;2.00;;
1777;SDS011;71547;50.146;8.174;2023-07-29T13:57:36;2.07;;;1.93;;
1777;SDS011;71547;50.146;8.174;2023-07-29T14:00:07;2.10;;;2.00;;
1777;SDS011;71547;50.146;8.174;2023-07-29T14:02:41;1.77;;;1.67;;
1777;SDS011;71547;50.146;8.174;2023-07-29T14:05:10;2.43;;;1.80;;
1777;SDS011;71547;50.146;8.174;2023-07-29T14:07:38;2.50;;;1.93;;
1777;SDS011;71547;50.146;8.174;2023-07-29T14:10:06;2.13;;;2.03;;
1777;SDS011;71547;50.146;8.174;2023-07-29T14:12:52;1.90;;;1.80;;
1777;SDS011;71547;50.146;8.174;2023-07-29T14:15:21;2.70;;;2.10;;
1777;SDS011;71547;50.146;8.174;2023-07-29T14:17:49;1.57;;;1.47;;
1777;SDS011;71547;50.146;8.174;2023-07-29T14:20:17;1.80;;;1.70;;
1777;SDS011;71547;50.146;8.174;2023-07-29T14:22:47;2.03;;;1.93;;
1777;SDS011;71547;50.146;8.174;2023-07-29T14:25:15;2.47;;;2.00;;
1777;SDS011;71547;50.146;8.174;2023-07-29T14:27:46;2.30;;;2.10;;
1777;SDS011;71547;50.146;8.174;2023-07-29T14:30:13;2.03;;;1.93;;
1777;SDS011;71547;50.146;8.174;2023-07-29T14:32:43;4.00;;;1.90;;
1777;SDS011;71547;50.146;8.174;2023-07-29T14:35:10;1.53;;;1.43;;
1777;SDS011;71547;50.146;8.174;2023-07-29T14:37:38;1.77;;;1.67;;
1777;SDS011;71547;50.146;8.174;2023-07-29T14:40:06;2.50;;;2.00;;
1777;SDS011;71547;50.146;8.174;2023-07-29T14:42:35;1.87;;;1.73;;
1777;SDS011;71547;50.146;8.174;2023-07-29T14:45:02;1.80;;;1.70;;
1777;SDS011;71547;50.146;8.174;2023-07-29T14:47:32;2.00;;;1.90;;
1777;SDS011;71547;50.146;8.174;2023-07-29T14:50:03;3.13;;;2.83;;
1777;SDS011;71547;50.146;8.174;2023-07-29T14:52:32;1.70;;;1.60;;
1777;SDS011;71547;50.146;8.174;2023-07-29T14:55:00;2.17;;;2.07;;
1777;SDS011;71547;50.146;8.174;2023-07-29T14:57:28;3.97;;;2.13;;
1777;SDS011;71547;50.146;8.174;2023-07-29T14:59:56;2.50;;;2.20;;
1777;SDS011;71547;50.146;8.174;2023-07-29T15:02:24;2.00;;;1.90;;
1777;SDS011;71547;50.146;8.174;2023-07-29T15:04:52;1.90;;;1.80;;
1777;SDS011;71547;50.146;8.174;2023-07-29T15:07:21;2.87;;;1.63;;
1777;SDS011;71547;50.146;8.174;2023-07-29T15:09:49;1.83;;;1.70;;
1777;SDS011;71547;50.146;8.174;2023-07-29T15:12:16;1.57;;;1.47;;
1777;SDS011;71547;50.146;8.174;2023-07-29T15:14:44;1.67;;;1.57;;